createdAt,value
2022-10-28T00:00:54.760Z,13.70
2022-10-28T00:03:22.658Z,13.70
2022-10-28T00:05:50.508Z,13.70
2022-10-28T00:08:18.358Z,13.80
2022-10-28T00:10:46.192Z,13.80
2022-10-28T00:13:16.073Z,13.90
2022-10-28T00:15:43.922Z,13.90
2022-10-28T00:18:12.335Z,14.00
2022-10-28T00:20:40.188Z,14.10
2022-10-28T00:23:08.054Z,14.10
2022-10-28T00:25:35.961Z,14.10
2022-10-28T00:28:03.788Z,14.10
2022-10-28T00:30:32.963Z,14.10
2022-10-28T00:33:00.825Z,14.10
2022-10-28T00:35:28.684Z,14.10
2022-10-28T00:37:56.539Z,14.10
2022-10-28T00:40:24.453Z,14.10
2022-10-28T00:42:52.751Z,14.10
2022-10-28T00:45:20.948Z,14.10
2022-10-28T00:47:55.966Z,14.10
2022-10-28T00:50:46.463Z,14.10
2022-10-28T00:53:18.622Z,14.10
2022-10-28T00:55:47.298Z,14.10
2022-10-28T00:58:16.712Z,14.10
2022-10-28T01:00:44.588Z,14.10
2022-10-28T01:03:13.946Z,14.20
2022-10-28T01:05:44.143Z,14.20
2022-10-28T01:08:12.567Z,14.20
2022-10-28T01:11:29.140Z,14.30
2022-10-28T01:14:13.916Z,14.20
2022-10-28T01:16:54.725Z,14.20
2022-10-28T01:19:58.723Z,14.30
2022-10-28T01:22:34.900Z,14.40
2022-10-28T01:25:31.421Z,14.30
2022-10-28T01:28:47.210Z,14.40
2022-10-28T01:31:27.485Z,14.40
2022-10-28T01:34:02.162Z,14.40
2022-10-28T01:36:39.554Z,14.40
2022-10-28T01:39:15.095Z,14.40
2022-10-28T01:41:50.719Z,14.40
2022-10-28T01:44:27.148Z,14.40
2022-10-28T01:47:03.119Z,14.40
2022-10-28T01:49:39.257Z,14.40
2022-10-28T01:52:12.121Z,14.40
2022-10-28T01:54:43.267Z,14.40
2022-10-28T01:57:13.308Z,14.40
2022-10-28T01:59:42.592Z,14.40
2022-10-28T02:02:11.810Z,14.40
2022-10-28T02:04:39.677Z,14.50
2022-10-28T02:07:07.690Z,14.40
2022-10-28T02:09:49.166Z,14.40
2022-10-28T02:12:27.384Z,14.40
2022-10-28T02:15:19.327Z,14.40
2022-10-28T02:17:57.992Z,14.40
2022-10-28T02:20:34.786Z,14.40
2022-10-28T02:23:15.076Z,14.50
2022-10-28T02:25:46.188Z,14.50
2022-10-28T02:28:20.481Z,14.50
2022-10-28T02:30:54.984Z,14.60
2022-10-28T02:33:28.212Z,14.60
2022-10-28T02:35:59.981Z,14.70
2022-10-28T02:38:33.545Z,14.70
2022-10-28T02:41:05.273Z,14.70
2022-10-28T02:43:36.136Z,14.60
2022-10-28T02:46:05.909Z,14.60
2022-10-28T02:48:41.449Z,14.60
2022-10-28T02:51:12.732Z,14.60
2022-10-28T02:53:48.845Z,14.50
2022-10-28T02:56:18.388Z,14.60
2022-10-28T02:58:55.561Z,14.60
2022-10-28T03:01:23.522Z,14.60
2022-10-28T03:03:52.915Z,14.70
2022-10-28T03:06:21.284Z,14.70
2022-10-28T03:08:49.184Z,14.80
2022-10-28T03:11:17.063Z,14.70
2022-10-28T03:13:44.889Z,14.70
2022-10-28T03:16:12.753Z,14.70
2022-10-28T03:18:40.758Z,14.70
2022-10-28T03:21:10.042Z,14.70
2022-10-28T03:23:37.894Z,14.80
2022-10-28T03:26:05.885Z,14.80
2022-10-28T03:28:33.731Z,14.80
2022-10-28T03:31:01.710Z,14.80
2022-10-28T03:33:29.720Z,14.80
2022-10-28T03:35:57.584Z,14.70
2022-10-28T03:38:26.796Z,14.70
2022-10-28T03:40:54.651Z,14.70
2022-10-28T03:43:22.467Z,14.70
2022-10-28T03:45:50.310Z,14.80
2022-10-28T03:48:18.179Z,14.80
2022-10-28T03:50:46.039Z,14.80
2022-10-28T03:53:13.949Z,14.80
2022-10-28T03:55:43.140Z,14.80
2022-10-28T03:58:10.953Z,14.80
2022-10-28T04:00:38.869Z,14.80
2022-10-28T04:03:06.740Z,14.80
2022-10-28T04:05:34.574Z,14.90
2022-10-28T04:08:02.429Z,14.80
2022-10-28T04:10:30.255Z,14.80
2022-10-28T04:13:02.330Z,14.70
2022-10-28T04:15:30.211Z,14.70
2022-10-28T04:17:58.076Z,14.80
2022-10-28T04:20:26.899Z,14.80
2022-10-28T04:22:57.164Z,14.70
2022-10-28T04:25:26.823Z,14.70
2022-10-28T04:27:55.354Z,14.60
2022-10-28T04:30:25.391Z,14.60
2022-10-28T04:32:53.252Z,14.60
2022-10-28T04:35:21.072Z,14.70
2022-10-28T04:37:48.976Z,14.60
2022-10-28T04:40:17.273Z,14.50
2022-10-28T04:42:45.537Z,14.60
2022-10-28T04:45:13.602Z,14.60
2022-10-28T04:47:42.804Z,14.60
2022-10-28T04:50:10.856Z,14.50
2022-10-28T04:52:38.734Z,14.50
2022-10-28T04:55:07.301Z,14.50
2022-10-28T04:57:35.146Z,14.50
2022-10-28T05:00:03.204Z,14.40
2022-10-28T05:02:31.135Z,14.40
2022-10-28T05:05:03.439Z,14.40
2022-10-28T05:07:31.547Z,14.30
2022-10-28T05:09:59.393Z,14.20
2022-10-28T05:12:27.252Z,14.30
2022-10-28T05:14:55.080Z,14.30
2022-10-28T05:17:22.982Z,14.30
2022-10-28T05:19:50.801Z,14.30
2022-10-28T05:22:20.299Z,14.20
2022-10-28T05:24:48.154Z,14.10
2022-10-28T05:27:17.076Z,14.10
2022-10-28T05:29:45.133Z,14.10
2022-10-28T05:32:12.994Z,14.10
2022-10-28T05:34:40.778Z,14.20
2022-10-28T05:37:08.610Z,14.20
2022-10-28T05:39:37.761Z,14.20
2022-10-28T05:42:05.897Z,14.20
2022-10-28T05:44:33.760Z,14.20
2022-10-28T05:47:01.683Z,14.20
2022-10-28T05:49:29.606Z,14.10
2022-10-28T05:51:57.496Z,14.10
2022-10-28T05:54:25.448Z,14.10
2022-10-28T05:56:54.724Z,14.10
2022-10-28T05:59:22.662Z,14.10
2022-10-28T06:01:50.620Z,14.10
2022-10-28T06:04:18.636Z,14.10
2022-10-28T06:06:46.636Z,14.10
2022-10-28T06:09:14.492Z,14.10
2022-10-28T06:11:40.783Z,14.20
2022-10-28T06:14:10.053Z,14.20
2022-10-28T06:16:38.201Z,14.20
2022-10-28T06:19:06.046Z,14.20
2022-10-28T06:21:33.924Z,14.30
2022-10-28T06:24:01.803Z,14.20
2022-10-28T06:26:30.646Z,14.30
2022-10-28T06:28:58.505Z,14.30
2022-10-28T06:31:27.711Z,14.40
2022-10-28T06:33:57.185Z,14.40
2022-10-28T06:36:25.065Z,14.40
2022-10-28T06:38:53.558Z,14.40
2022-10-28T06:41:21.391Z,14.40
2022-10-28T06:43:49.279Z,14.40
2022-10-28T06:46:17.176Z,14.40
2022-10-28T06:48:47.910Z,14.40
2022-10-28T06:51:17.150Z,14.50
2022-10-28T06:53:45.024Z,14.50
2022-10-28T06:56:12.881Z,14.60
2022-10-28T06:58:40.767Z,14.60
2022-10-28T07:01:08.956Z,14.60
2022-10-28T07:03:36.869Z,14.60
2022-10-28T07:06:06.887Z,14.60
2022-10-28T07:08:34.802Z,14.60
2022-10-28T07:11:03.234Z,14.60
2022-10-28T07:13:31.194Z,14.70
2022-10-28T07:16:01.500Z,14.70
2022-10-28T07:18:30.838Z,14.70
2022-10-28T07:21:00.026Z,14.70
2022-10-28T07:23:31.489Z,14.70
2022-10-28T07:25:59.584Z,14.80
2022-10-28T07:28:28.522Z,14.80
2022-10-28T07:30:56.519Z,14.80
2022-10-28T07:33:24.356Z,14.80
2022-10-28T07:35:52.317Z,14.90
2022-10-28T07:38:20.179Z,14.90
2022-10-28T07:40:49.403Z,15.00
2022-10-28T07:43:17.278Z,15.00
2022-10-28T07:45:45.138Z,15.10
2022-10-28T07:48:13.033Z,15.10
2022-10-28T07:50:41.654Z,15.20
2022-10-28T07:53:09.567Z,15.20
2022-10-28T07:55:37.486Z,15.40
2022-10-28T07:58:06.829Z,15.40
2022-10-28T08:00:34.687Z,15.40
2022-10-28T08:03:03.491Z,15.50
2022-10-28T08:05:31.451Z,15.50
2022-10-28T08:07:59.253Z,15.40
2022-10-28T08:10:27.984Z,15.50
2022-10-28T08:12:57.445Z,15.50
2022-10-28T08:15:27.379Z,15.50
2022-10-28T08:17:55.753Z,15.50
2022-10-28T08:20:24.496Z,15.40
2022-10-28T08:22:52.675Z,15.40
2022-10-28T08:25:23.877Z,15.50
2022-10-28T08:27:51.734Z,15.50
2022-10-28T08:30:19.633Z,15.50
2022-10-28T08:32:48.794Z,15.50
2022-10-28T08:35:16.904Z,15.60
2022-10-28T08:37:51.441Z,15.60
2022-10-28T08:40:26.583Z,15.70
2022-10-28T08:43:05.387Z,15.70
2022-10-28T08:45:41.539Z,15.80
2022-10-28T08:48:18.442Z,15.80
2022-10-28T08:50:50.024Z,15.80
2022-10-28T08:53:22.254Z,15.80
2022-10-28T08:55:52.368Z,15.80
2022-10-28T08:58:24.751Z,15.80
2022-10-28T09:00:56.071Z,15.90
2022-10-28T09:03:27.922Z,16.00
2022-10-28T09:06:01.879Z,16.00
2022-10-28T09:08:32.577Z,16.10
2022-10-28T09:11:16.778Z,16.10
2022-10-28T09:13:57.676Z,16.20
2022-10-28T09:16:38.990Z,16.20
2022-10-28T09:19:22.702Z,16.20
2022-10-28T09:21:58.784Z,16.10
2022-10-28T09:24:38.309Z,16.10
2022-10-28T09:27:14.926Z,16.20
2022-10-28T09:29:53.039Z,16.30
2022-10-28T09:32:27.022Z,16.60
2022-10-28T09:35:02.062Z,16.90
2022-10-28T09:37:33.579Z,17.20
2022-10-28T09:40:06.194Z,17.50
2022-10-28T09:45:14.850Z,17.70
2022-10-28T09:47:45.673Z,17.70
2022-10-28T09:50:20.089Z,17.70
2022-10-28T09:52:55.946Z,17.70
2022-10-28T09:55:24.550Z,17.90
2022-10-28T09:57:52.862Z,18.20
2022-10-28T10:00:21.469Z,18.40
2022-10-28T10:02:51.621Z,18.50
2022-10-28T10:05:20.982Z,18.60
2022-10-28T10:07:53.749Z,18.70
2022-10-28T10:10:25.467Z,18.80
2022-10-28T10:12:55.416Z,18.70
2022-10-28T10:15:30.944Z,18.80
2022-10-28T10:18:01.375Z,18.90
2022-10-28T10:20:48.286Z,19.00
2022-10-28T10:23:24.898Z,19.00
2022-10-28T10:25:58.289Z,19.10
2022-10-28T10:28:27.887Z,19.20
2022-10-28T10:30:58.664Z,19.20
2022-10-28T10:33:29.373Z,19.10
2022-10-28T10:36:02.807Z,19.10
2022-10-28T10:38:32.304Z,19.10
2022-10-28T10:41:00.164Z,19.30
2022-10-28T10:43:32.832Z,19.30
2022-10-28T10:46:04.216Z,19.40
2022-10-28T10:48:36.058Z,19.40
2022-10-28T10:51:10.359Z,19.50
2022-10-28T10:53:40.875Z,19.60
2022-10-28T10:56:10.795Z,19.80
2022-10-28T10:58:41.320Z,19.80
2022-10-28T11:01:10.977Z,19.80
2022-10-28T11:03:48.580Z,19.80
2022-10-28T11:06:24.989Z,19.90
2022-10-28T11:08:58.835Z,20.00
2022-10-28T11:11:35.003Z,20.00
2022-10-28T11:14:08.872Z,19.90
2022-10-28T11:16:48.817Z,20.00
2022-10-28T11:19:22.345Z,20.10
2022-10-28T11:22:10.962Z,20.10
2022-10-28T11:24:56.586Z,20.10
2022-10-28T11:27:35.493Z,20.20
2022-10-28T11:30:03.946Z,20.40
2022-10-28T11:32:50.188Z,20.50
2022-10-28T11:35:51.344Z,20.60
2022-10-28T11:38:35.271Z,20.80
2022-10-28T11:41:19.071Z,20.80
2022-10-28T11:43:54.819Z,20.90
2022-10-28T11:46:43.095Z,21.00
2022-10-28T11:49:31.950Z,21.00
2022-10-28T11:52:08.102Z,21.10
2022-10-28T11:54:50.865Z,21.20
2022-10-28T11:57:27.610Z,21.40
2022-10-28T12:00:15.894Z,21.50
2022-10-28T12:02:59.688Z,21.60
2022-10-28T12:05:36.358Z,21.70
2022-10-28T12:08:16.215Z,21.80
2022-10-28T12:11:04.268Z,21.90
2022-10-28T12:13:39.102Z,22.00
2022-10-28T12:16:12.718Z,22.10
2022-10-28T12:18:50.079Z,22.30
2022-10-28T12:21:26.152Z,22.40
2022-10-28T12:23:55.914Z,22.50
2022-10-28T12:26:33.038Z,22.60
2022-10-28T12:29:04.554Z,22.50
2022-10-28T12:31:38.718Z,22.60
2022-10-28T12:34:11.074Z,22.60
2022-10-28T12:36:42.936Z,22.60
2022-10-28T12:39:16.619Z,22.70
2022-10-28T12:41:50.953Z,23.00
2022-10-28T12:44:22.228Z,23.10
2022-10-28T12:47:01.258Z,23.30
2022-10-28T12:49:38.283Z,23.40
2022-10-28T12:52:15.260Z,23.40
2022-10-28T12:54:53.677Z,23.50
2022-10-28T12:57:25.969Z,23.70
2022-10-28T12:59:58.408Z,23.70
2022-10-28T13:02:32.034Z,23.70
2022-10-28T13:05:00.227Z,23.80
2022-10-28T13:07:44.195Z,23.80
2022-10-28T13:10:20.581Z,23.90
2022-10-28T13:13:15.750Z,24.00
2022-10-28T13:15:59.353Z,24.20
2022-10-28T13:18:49.400Z,24.20
2022-10-28T13:21:30.734Z,24.10
2022-10-28T13:24:03.832Z,24.00
2022-10-28T13:26:34.549Z,24.00
2022-10-28T13:29:07.238Z,24.00
2022-10-28T13:31:41.362Z,24.00
2022-10-28T13:34:10.659Z,23.90
2022-10-28T13:36:42.692Z,23.90
2022-10-28T13:39:25.134Z,23.90
2022-10-28T13:42:26.326Z,23.90
2022-10-28T13:44:56.825Z,23.80
2022-10-28T13:47:30.766Z,23.80
2022-10-28T13:50:33.512Z,23.70
2022-10-28T13:53:41.512Z,23.60
2022-10-28T13:56:25.586Z,23.60
2022-10-28T13:58:55.858Z,23.60
2022-10-28T14:02:08.062Z,23.60
2022-10-28T14:04:44.136Z,23.60
2022-10-28T14:07:22.292Z,23.60
2022-10-28T14:09:53.841Z,23.60
2022-10-28T14:12:31.369Z,23.50
2022-10-28T14:15:05.742Z,23.40
2022-10-28T14:17:42.888Z,23.30
2022-10-28T14:20:25.579Z,23.20
2022-10-28T14:22:54.306Z,23.10
2022-10-28T14:25:56.087Z,23.00
2022-10-28T14:28:55.569Z,22.90
2022-10-28T14:31:43.795Z,22.80
2022-10-28T14:34:44.945Z,22.80
2022-10-28T14:37:45.763Z,22.70
2022-10-28T14:40:25.701Z,22.70
2022-10-28T14:43:08.407Z,22.60
2022-10-28T14:45:42.495Z,22.60
2022-10-28T14:48:30.639Z,22.50
2022-10-28T14:51:02.393Z,22.40
2022-10-28T14:53:33.222Z,22.40
2022-10-28T14:56:04.047Z,22.30
2022-10-28T14:58:37.526Z,22.30
2022-10-28T15:01:24.218Z,22.30
2022-10-28T15:03:54.910Z,22.30
2022-10-28T15:06:33.964Z,22.20
2022-10-28T15:09:10.407Z,22.20
2022-10-28T15:11:38.407Z,22.10
2022-10-28T15:14:25.078Z,22.00
2022-10-28T15:16:53.125Z,21.90
2022-10-28T15:19:23.158Z,21.80
2022-10-28T15:22:30.782Z,21.80
2022-10-28T15:25:00.583Z,21.70
2022-10-28T15:27:30.759Z,21.60
2022-10-28T15:29:58.852Z,21.50
2022-10-28T15:32:37.076Z,21.40
2022-10-28T15:35:40.102Z,21.40
2022-10-28T15:38:38.051Z,21.40
2022-10-28T15:41:42.584Z,21.40
2022-10-28T15:44:32.486Z,21.40
2022-10-28T15:47:03.034Z,21.40
2022-10-28T15:49:36.974Z,21.50
2022-10-28T15:52:38.922Z,21.50
2022-10-28T15:55:41.020Z,21.40
2022-10-28T15:58:38.985Z,21.30
2022-10-28T16:01:11.302Z,21.20
2022-10-28T16:03:44.384Z,21.20
2022-10-28T16:06:24.665Z,21.10
2022-10-28T16:09:07.406Z,21.00
2022-10-28T16:11:41.371Z,20.90
2022-10-28T16:14:31.686Z,20.90
2022-10-28T16:19:42.069Z,20.80
2022-10-28T16:22:12.996Z,20.80
2022-10-28T16:24:40.935Z,20.90
2022-10-28T16:27:21.744Z,20.80
2022-10-28T16:29:50.095Z,20.80
2022-10-28T16:32:26.056Z,20.70
2022-10-28T16:34:53.942Z,20.80
2022-10-28T16:37:25.554Z,20.70
2022-10-28T16:39:54.192Z,20.60
2022-10-28T16:42:23.925Z,20.60
2022-10-28T16:44:52.418Z,20.60
2022-10-28T16:47:23.018Z,20.50
2022-10-28T16:49:54.307Z,20.40
2022-10-28T16:52:27.258Z,20.40
2022-10-28T16:54:55.151Z,20.30
2022-10-28T16:59:57.563Z,20.20
2022-10-28T17:02:29.745Z,20.00
2022-10-28T17:04:58.386Z,19.90
2022-10-28T17:07:26.854Z,20.00
2022-10-28T17:09:55.012Z,19.90
2022-10-28T17:12:26.151Z,19.80
2022-10-28T17:14:54.321Z,19.80
2022-10-28T17:17:22.220Z,19.80
2022-10-28T17:19:50.119Z,19.70
2022-10-28T17:22:18.018Z,19.70
2022-10-28T17:24:46.088Z,19.70
2022-10-28T17:27:14.184Z,19.70
2022-10-28T17:29:43.549Z,19.70
2022-10-28T17:32:11.661Z,19.70
2022-10-28T17:34:39.542Z,19.60
2022-10-28T17:37:07.777Z,19.50
2022-10-28T17:39:35.934Z,19.50
2022-10-28T17:42:04.338Z,19.40
2022-10-28T17:44:32.209Z,19.40
2022-10-28T17:47:01.562Z,19.40
2022-10-28T17:49:29.840Z,19.40
2022-10-28T17:51:57.903Z,19.30
2022-10-28T17:54:25.867Z,19.10
2022-10-28T17:56:53.786Z,18.90
2022-10-28T17:59:21.659Z,18.90
2022-10-28T18:01:49.721Z,18.70
2022-10-28T18:04:20.218Z,18.60
2022-10-28T18:06:48.115Z,18.60
2022-10-28T18:09:16.012Z,18.70
2022-10-28T18:11:43.859Z,18.70
2022-10-28T18:14:11.759Z,18.60
2022-10-28T18:16:39.602Z,18.50
2022-10-28T18:19:08.657Z,18.50
2022-10-28T18:21:37.895Z,18.50
2022-10-28T18:24:06.148Z,18.40
2022-10-28T18:26:35.247Z,18.40
2022-10-28T18:29:04.074Z,18.40
2022-10-28T18:31:32.934Z,18.30
2022-10-28T18:34:01.481Z,18.30
2022-10-28T18:36:33.994Z,18.20
2022-10-28T18:39:04.311Z,18.20
2022-10-28T18:41:33.590Z,18.10
2022-10-28T18:44:02.467Z,18.20
2022-10-28T18:46:32.442Z,18.00
2022-10-28T18:51:33.363Z,17.80
2022-10-28T18:54:01.372Z,17.60
2022-10-28T18:56:31.022Z,17.60
2022-10-28T18:58:59.249Z,17.60
2022-10-28T19:01:28.795Z,17.60
2022-10-28T19:03:58.696Z,17.50
2022-10-28T19:06:29.779Z,17.40
2022-10-28T19:08:59.286Z,17.40
2022-10-28T19:11:30.122Z,17.40
2022-10-28T19:14:00.171Z,17.40
2022-10-28T19:16:29.242Z,17.30
2022-10-28T19:18:58.281Z,17.20
2022-10-28T19:21:27.253Z,17.20
2022-10-28T19:23:55.546Z,17.20
2022-10-28T19:26:23.910Z,17.10
2022-10-28T19:28:53.041Z,17.10
2022-10-28T19:31:23.905Z,17.10
2022-10-28T19:33:53.395Z,17.10
2022-10-28T19:36:22.993Z,17.00
2022-10-28T19:38:53.512Z,16.90
2022-10-28T19:41:22.553Z,16.90
2022-10-28T19:43:57.796Z,16.90
2022-10-28T19:46:29.295Z,16.90
2022-10-28T19:48:58.411Z,16.80
2022-10-28T19:51:28.646Z,16.80
2022-10-28T19:53:58.622Z,16.70
2022-10-28T19:56:27.230Z,16.70
2022-10-28T19:58:56.802Z,16.70
2022-10-28T20:01:28.016Z,16.70
2022-10-28T20:03:56.768Z,16.60
2022-10-28T20:06:26.461Z,16.70
2022-10-28T20:08:54.676Z,16.70
2022-10-28T20:11:26.282Z,16.60
2022-10-28T20:13:56.361Z,16.60
2022-10-28T20:16:25.563Z,16.70
2022-10-28T20:18:56.238Z,16.60
2022-10-28T20:21:28.454Z,16.60
2022-10-28T20:23:57.834Z,16.40
2022-10-28T20:26:27.133Z,16.40
2022-10-28T20:28:55.713Z,16.40
2022-10-28T20:31:25.266Z,16.30
2022-10-28T20:33:56.701Z,16.30
2022-10-28T20:36:26.614Z,16.20
2022-10-28T20:38:55.441Z,16.20
2022-10-28T20:41:24.095Z,16.10
2022-10-28T20:43:52.940Z,16.10
2022-10-28T20:46:21.794Z,16.10
2022-10-28T20:48:50.336Z,16.10
2022-10-28T20:51:19.638Z,16.00
2022-10-28T20:53:47.933Z,16.00
2022-10-28T20:56:17.364Z,16.00
2022-10-28T20:58:45.407Z,16.00
2022-10-28T21:01:16.200Z,16.00
2022-10-28T21:03:45.119Z,16.00
2022-10-28T21:08:43.549Z,16.00
2022-10-28T21:11:13.977Z,15.90
2022-10-28T21:13:42.209Z,15.80
2022-10-28T21:16:13.028Z,15.70
2022-10-28T21:18:41.228Z,15.70
2022-10-28T21:21:09.197Z,15.60
2022-10-28T21:23:37.244Z,15.60
2022-10-28T21:26:07.816Z,15.60
2022-10-28T21:28:36.820Z,15.60
2022-10-28T21:31:06.648Z,15.70
2022-10-28T21:33:36.072Z,15.60
2022-10-28T21:36:06.673Z,15.50
2022-10-28T21:38:35.523Z,15.50
2022-10-28T21:41:05.056Z,15.50
2022-10-28T21:43:36.132Z,15.50
2022-10-28T21:46:04.444Z,15.40
2022-10-28T21:48:33.810Z,15.40
2022-10-28T21:51:03.711Z,15.30
2022-10-28T21:53:33.951Z,15.30
2022-10-28T21:56:05.957Z,15.20
2022-10-28T21:58:36.927Z,15.20
2022-10-28T22:01:06.745Z,15.20
2022-10-28T22:03:35.087Z,15.20
2022-10-28T22:06:03.181Z,15.20
2022-10-28T22:08:31.223Z,15.10
2022-10-28T22:11:01.070Z,15.10
2022-10-28T22:13:29.061Z,15.00
2022-10-28T22:16:02.482Z,14.80
2022-10-28T22:18:31.356Z,14.80
2022-10-28T22:21:05.411Z,14.60
2022-10-28T22:23:33.518Z,14.50
2022-10-28T22:26:05.978Z,14.40
2022-10-28T22:28:34.397Z,14.40
2022-10-28T22:31:06.045Z,14.40
2022-10-28T22:33:34.517Z,14.40
2022-10-28T22:36:04.888Z,14.30
2022-10-28T22:38:32.973Z,14.30
2022-10-28T22:41:05.777Z,14.30
2022-10-28T22:43:34.117Z,14.30
2022-10-28T22:46:03.761Z,14.30
2022-10-28T22:48:32.636Z,14.20
2022-10-28T22:51:01.295Z,14.20
2022-10-28T22:53:29.374Z,14.20
2022-10-28T22:55:58.175Z,14.20
2022-10-28T22:58:27.311Z,14.40
2022-10-28T23:00:55.482Z,14.40
2022-10-28T23:03:24.875Z,14.50
2022-10-28T23:05:52.807Z,14.50
2022-10-28T23:08:20.690Z,14.50
2022-10-28T23:10:48.558Z,14.40
2022-10-28T23:13:16.498Z,14.40
2022-10-28T23:15:44.392Z,14.40
2022-10-28T23:18:12.218Z,14.40
2022-10-28T23:20:41.468Z,14.40
2022-10-28T23:23:09.421Z,14.50
2022-10-28T23:25:37.432Z,14.60
2022-10-28T23:28:06.635Z,14.70
2022-10-28T23:30:34.523Z,14.70
2022-10-28T23:33:02.367Z,14.70
2022-10-28T23:35:30.263Z,14.80
2022-10-28T23:38:00.175Z,14.80
2022-10-28T23:40:28.079Z,14.80
2022-10-28T23:42:56.214Z,14.80
2022-10-28T23:45:24.364Z,14.80
2022-10-28T23:47:52.248Z,14.70
2022-10-28T23:50:20.123Z,14.70
2022-10-28T23:52:47.996Z,14.70
2022-10-28T23:55:17.504Z,14.60
2022-10-28T23:57:45.368Z,14.60
